Aviation Digital Data Service (ADDS)

Output produced by METARs form (1352 UTC 01 August 2014)
found at http://aviationweather.gov/adds/metars/
 
KSYR 011238Z 0113/0212 13004KT P6SM SCT120 
     FM011400 26008KT P6SM SCT050 SCT250 
     FM020000 18005KT P6SM BKN100